Time;durP1;ratioP1;P1;durP2;ratioP2;P2;SDS_P1;SDS_P2;PMS_P1;PMS_P2;Temp;Humidity;BMP_temperature;BMP_pressure;BME280_temperature;BME280_humidity;BME280_pressure;Samples;Min_cycle;Max_cycle;Signal;HPM_P1;HPM_P2
2022/04/21 00:00:04;;;;;;;3.17;2.30;;;16.70;58.60;;;;;;5057967;28;20050;-79
2022/04/21 00:02:31;;;;;;;3.60;2.30;;;16.70;58.60;;;;;;5078772;28;20032;-77
2022/04/21 00:04:57;;;;;;;4.15;3.00;;;16.60;58.60;;;;;;5103293;28;20067;-77
2022/04/21 00:07:24;;;;;;;3.45;2.40;;;16.50;58.50;;;;;;5072008;28;20396;-77
2022/04/21 00:09:50;;;;;;;3.22;2.45;;;16.60;58.60;;;;;;5071491;28;20020;-77
2022/04/21 00:12:15;;;;;;;3.72;2.72;;;16.50;58.50;;;;;;5068042;28;20025;-78
2022/04/21 00:14:42;;;;;;;3.50;2.40;;;16.50;58.60;;;;;;5081740;28;20714;-78
2022/04/21 00:17:10;;;;;;;3.15;2.30;;;16.50;58.60;;;;;;5088769;28;20031;-77
2022/04/21 00:19:37;;;;;;;3.58;2.47;;;16.40;58.50;;;;;;5084510;28;20028;-77
2022/04/21 00:24:48;;;;;;;3.63;2.67;;;16.40;58.70;;;;;;5094467;28;20040;-78
2022/04/21 00:27:14;;;;;;;3.58;2.60;;;16.40;58.70;;;;;;5054292;28;20020;-77
2022/04/21 00:29:40;;;;;;;3.22;2.30;;;16.30;58.70;;;;;;5071128;28;20028;-78
2022/04/21 00:32:06;;;;;;;3.15;2.30;;;16.20;58.60;;;;;;5089012;28;20184;-77
2022/04/21 00:34:32;;;;;;;3.75;2.72;;;16.30;58.70;;;;;;5068684;28;20028;-77
2022/04/21 00:36:58;;;;;;;3.85;2.70;;;16.20;58.60;;;;;;5068191;28;20032;-77
2022/04/21 00:39:23;;;;;;;3.10;2.40;;;16.20;58.70;;;;;;5084542;28;20127;-77
2022/04/21 00:41:55;;;;;;;3.33;2.45;;;16.20;58.70;;;;;;5067072;28;20077;-77
2022/04/21 00:44:21;;;;;;;3.55;2.60;;;16.10;58.60;;;;;;5085200;28;20091;-77
2022/04/21 00:46:48;;;;;;;4.35;2.72;;;16.10;58.70;;;;;;5077613;28;20028;-79
2022/04/21 00:49:14;;;;;;;2.80;2.40;;;16.10;58.80;;;;;;5088567;28;20052;-77
2022/04/21 00:51:41;;;;;;;4.22;2.70;;;16.10;58.90;;;;;;5088137;28;20440;-77
2022/04/21 00:54:06;;;;;;;3.65;2.40;;;16.00;58.80;;;;;;5083034;28;20032;-76
2022/04/21 00:56:32;;;;;;;3.30;2.38;;;16.00;58.80;;;;;;5047976;28;20028;-78
2022/04/21 00:58:59;;;;;;;4.20;2.80;;;16.00;58.90;;;;;;5067958;28;20044;-78
2022/04/21 01:04:11;;;;;;;3.35;2.50;;;15.90;58.90;;;;;;5070119;28;20047;-78
2022/04/21 01:06:37;;;;;;;4.05;2.50;;;15.90;58.90;;;;;;5084348;28;20035;-78
2022/04/21 01:09:03;;;;;;;2.72;2.22;;;15.90;58.90;;;;;;5069233;28;20048;-78
2022/04/21 01:11:28;;;;;;;3.58;2.50;;;15.90;59.00;;;;;;5054812;28;20040;-77
2022/04/21 01:13:54;;;;;;;3.70;2.60;;;15.80;59.00;;;;;;5069935;28;20107;-77
2022/04/21 01:16:20;;;;;;;3.90;2.63;;;15.80;59.00;;;;;;5071263;28;20038;-76
2022/04/21 01:18:46;;;;;;;3.60;2.40;;;15.70;59.00;;;;;;5085205;28;20155;-78
2022/04/21 01:21:12;;;;;;;3.95;2.70;;;15.70;59.10;;;;;;5088576;28;20119;-78
2022/04/21 01:23:38;;;;;;;4.03;2.78;;;15.70;59.10;;;;;;5069071;28;20024;-78
2022/04/21 01:26:04;;;;;;;3.40;2.55;;;15.70;59.20;;;;;;5065729;28;20034;-77
2022/04/21 01:28:31;;;;;;;3.72;2.72;;;15.60;59.20;;;;;;5086645;28;20028;-77
2022/04/21 01:30:57;;;;;;;3.63;2.55;;;15.60;59.20;;;;;;5083615;28;20102;-75
2022/04/21 01:33:24;;;;;;;3.90;2.70;;;15.60;59.30;;;;;;5072371;28;20037;-78
2022/04/21 01:35:51;;;;;;;4.45;3.05;;;15.60;59.20;;;;;;5092121;28;20048;-78
2022/04/21 01:41:09;;;;;;;3.35;2.60;;;15.50;59.20;;;;;;5105515;28;20028;-78
2022/04/21 01:43:37;;;;;;;3.13;2.38;;;15.50;59.30;;;;;;5073394;28;20028;-78
2022/04/21 01:46:03;;;;;;;3.55;2.50;;;15.40;59.30;;;;;;5056672;28;20120;-78
2022/04/21 01:48:29;;;;;;;3.83;2.70;;;15.40;59.40;;;;;;5082615;28;20036;-76
2022/04/21 01:50:55;;;;;;;4.72;2.65;;;15.40;59.40;;;;;;5089487;28;20055;-74
2022/04/21 01:53:21;;;;;;;4.32;2.90;;;15.40;59.30;;;;;;5084048;28;20444;-75
2022/04/21 01:55:47;;;;;;;4.30;2.70;;;15.40;59.60;;;;;;5082229;28;20525;-78
2022/04/21 01:58:13;;;;;;;3.63;2.70;;;15.30;59.50;;;;;;5079822;28;20033;-78
2022/04/21 02:00:40;;;;;;;3.78;2.80;;;15.30;60.00;;;;;;5069972;28;20032;-78
2022/04/21 02:03:06;;;;;;;3.15;2.60;;;15.30;59.30;;;;;;5078240;28;20024;-74
2022/04/21 02:05:32;;;;;;;3.92;2.97;;;15.20;59.30;;;;;;5086501;28;20035;-75
2022/04/21 02:07:58;;;;;;;4.03;2.90;;;15.20;59.40;;;;;;5068806;28;20036;-75
2022/04/21 02:10:24;;;;;;;4.00;2.80;;;15.20;59.50;;;;;;5088379;28;20098;-79
2022/04/21 02:12:50;;;;;;;3.75;2.72;;;15.20;59.60;;;;;;5089492;28;20035;-78
2022/04/21 02:15:19;;;;;;;4.20;2.90;;;15.10;59.60;;;;;;5090264;28;20056;-78
2022/04/21 02:17:46;;;;;;;4.22;3.13;;;15.10;59.60;;;;;;5068020;28;20045;-78
2022/04/21 02:20:16;;;;;;;3.58;2.80;;;15.10;59.60;;;;;;5066792;28;20056;-78
2022/04/21 02:22:45;;;;;;;4.30;2.92;;;15.10;59.60;;;;;;5095304;28;20039;-78
2022/04/21 02:25:13;;;;;;;3.47;2.53;;;15.10;59.70;;;;;;5078660;28;20036;-77
2022/04/21 02:27:41;;;;;;;3.28;2.53;;;15.00;59.50;;;;;;5095423;28;20116;-77
2022/04/21 02:30:09;;;;;;;3.85;2.83;;;15.00;59.70;;;;;;5096735;28;20031;-78
2022/04/21 02:32:35;;;;;;;4.05;2.83;;;15.00;59.80;;;;;;5083428;28;20118;-78
2022/04/21 02:35:02;;;;;;;4.15;2.67;;;15.00;59.80;;;;;;5062318;28;20404;-74
2022/04/21 02:37:34;;;;;;;3.85;2.83;;;14.90;59.90;;;;;;5078720;28;20125;-76
2022/04/21 02:39:59;;;;;;;3.40;2.58;;;14.90;60.20;;;;;;5089211;28;20035;-75
2022/04/21 02:42:25;;;;;;;4.32;3.00;;;14.90;59.90;;;;;;5074384;28;20115;-75
2022/04/21 02:44:51;;;;;;;3.50;2.80;;;14.80;60.00;;;;;;5092623;28;20077;-75
2022/04/21 02:47:17;;;;;;;4.40;3.08;;;14.80;60.10;;;;;;5072740;28;20068;-78
2022/04/21 02:49:47;;;;;;;3.50;2.70;;;14.80;60.00;;;;;;5071790;28;20044;-77
2022/04/21 02:52:13;;;;;;;4.07;2.53;;;14.80;60.00;;;;;;5056155;28;20064;-78
2022/04/21 02:57:25;;;;;;;3.55;2.50;;;14.70;60.00;;;;;;5083638;28;20024;-78
2022/04/21 02:59:57;;;;;;;3.80;2.75;;;14.70;60.00;;;;;;5079108;28;20074;-78
2022/04/21 03:02:24;;;;;;;3.83;2.63;;;14.70;60.10;;;;;;5091219;28;20027;-78
2022/04/21 03:04:51;;;;;;;3.63;2.47;;;14.60;60.10;;;;;;5085133;28;20031;-75
2022/04/21 03:07:17;;;;;;;3.45;2.60;;;14.60;60.10;;;;;;5072024;28;20030;-77
2022/04/21 03:09:44;;;;;;;3.72;2.70;;;14.60;60.10;;;;;;5096721;28;20039;-77
2022/04/21 03:12:10;;;;;;;3.88;2.90;;;14.60;60.10;;;;;;5088919;28;20024;-79
2022/04/21 03:14:41;;;;;;;3.70;2.55;;;14.50;60.10;;;;;;5077453;28;20057;-77
2022/04/21 03:17:09;;;;;;;3.90;2.95;;;14.50;60.20;;;;;;5088624;28;20024;-78
2022/04/21 03:19:35;;;;;;;3.22;2.47;;;14.50;60.20;;;;;;5077868;28;20032;-79
2022/04/21 03:24:46;;;;;;;3.22;2.40;;;14.40;60.00;;;;;;5076070;28;20036;-78
2022/04/21 03:27:12;;;;;;;3.13;2.58;;;14.40;60.00;;;;;;5071250;28;20586;-78
2022/04/21 03:29:39;;;;;;;4.07;3.03;;;14.40;60.00;;;;;;5076778;28;20035;-77
2022/04/21 03:32:09;;;;;;;3.08;2.40;;;14.30;60.00;;;;;;5073365;28;20025;-78
2022/04/21 03:34:42;;;;;;;3.38;2.53;;;14.30;60.00;;;;;;5070292;28;20267;-78
2022/04/21 03:37:10;;;;;;;3.45;2.50;;;14.30;60.00;;;;;;5079412;28;20030;-78
2022/04/21 03:39:37;;;;;;;3.53;2.65;;;14.30;60.00;;;;;;5090252;28;20036;-78
2022/04/21 03:42:04;;;;;;;4.03;2.72;;;14.30;60.00;;;;;;5086201;28;20107;-78
2022/04/21 03:44:30;;;;;;;3.58;2.72;;;14.20;60.00;;;;;;5081269;28;20035;-78
2022/04/21 03:46:57;;;;;;;3.45;2.58;;;14.20;60.10;;;;;;5077723;28;20034;-78
2022/04/21 03:49:30;;;;;;;3.40;2.50;;;14.20;60.10;;;;;;5087796;28;20110;-78
2022/04/21 03:51:57;;;;;;;3.42;2.55;;;14.20;60.20;;;;;;5087627;28;20055;-78
2022/04/21 03:54:23;;;;;;;3.90;2.50;;;14.10;60.00;;;;;;5076035;28;20093;-78
2022/04/21 03:56:50;;;;;;;3.05;2.42;;;14.10;60.00;;;;;;5097507;28;20053;-78
2022/04/21 03:59:17;;;;;;;3.20;2.75;;;14.10;60.10;;;;;;5090883;28;20480;-78
2022/04/21 04:01:43;;;;;;;3.92;2.78;;;14.10;60.00;;;;;;5085833;28;20035;-78
2022/04/21 04:04:09;;;;;;;3.55;2.70;;;14.00;60.00;;;;;;5070639;28;20123;-78
2022/04/21 04:12:03;;;;;;;3.13;2.47;;;14.00;60.00;;;;;;5089492;28;20159;-78
2022/04/21 04:14:29;;;;;;;3.42;2.65;;;13.90;60.00;;;;;;5100728;28;20032;-78
2022/04/21 04:16:56;;;;;;;3.67;2.45;;;13.90;60.00;;;;;;5094048;28;20043;-78
2022/04/21 04:19:21;;;;;;;3.22;2.55;;;13.90;60.00;;;;;;5071767;28;20183;-75
2022/04/21 04:21:47;;;;;;;3.35;2.50;;;13.90;60.00;;;;;;5068535;28;20166;-79
2022/04/21 04:24:13;;;;;;;3.60;2.70;;;13.90;60.00;;;;;;5046241;28;20074;-78
2022/04/21 04:26:39;;;;;;;3.10;2.35;;;13.80;60.00;;;;;;5090317;28;20034;-78
2022/04/21 04:29:05;;;;;;;3.78;2.92;;;13.80;60.00;;;;;;5076369;28;20480;-78
2022/04/21 04:31:31;;;;;;;3.80;2.47;;;13.80;60.00;;;;;;5093560;28;20042;-78
2022/04/21 04:33:57;;;;;;;3.20;2.40;;;13.80;60.10;;;;;;5071506;28;20361;-77
2022/04/21 04:36:23;;;;;;;2.90;2.28;;;13.80;60.10;;;;;;5087929;28;20039;-77
2022/04/21 04:38:49;;;;;;;3.88;2.60;;;13.70;60.10;;;;;;5065402;28;20055;-77
2022/04/21 04:44:00;;;;;;;4.72;2.50;;;13.60;60.00;;;;;;5076562;28;20032;-74
2022/04/21 04:46:34;;;;;;;3.28;2.35;;;13.60;60.00;;;;;;5051550;28;20028;-78
2022/04/21 04:49:08;;;;;;;3.13;2.55;;;13.60;60.10;;;;;;5080236;28;20039;-78
2022/04/21 04:51:35;;;;;;;3.00;2.33;;;13.60;60.10;;;;;;5088372;28;20024;-79
2022/04/21 04:54:05;;;;;;;3.85;2.42;;;13.60;60.10;;;;;;5094049;28;20028;-77
2022/04/21 04:56:31;;;;;;;3.03;2.30;;;13.60;60.10;;;;;;5070358;28;20024;-78
2022/04/21 04:58:57;;;;;;;2.80;2.30;;;13.50;60.10;;;;;;5063166;28;20400;-79
2022/04/21 05:01:46;;;;;;;2.95;2.28;;;13.50;60.10;;;;;;5076939;28;20491;-78
2022/04/21 05:04:17;;;;;;;3.38;2.35;;;13.50;60.20;;;;;;5087124;28;20032;-78
2022/04/21 05:06:48;;;;;;;3.25;2.40;;;13.50;60.20;;;;;;5066078;28;20624;-78
2022/04/21 05:09:17;;;;;;;3.35;2.55;;;13.40;60.10;;;;;;5075630;28;20042;-77
2022/04/21 05:11:51;;;;;;;3.30;2.47;;;13.40;60.20;;;;;;5095945;28;20111;-77
2022/04/21 05:14:17;;;;;;;3.72;2.40;;;13.40;60.20;;;;;;5098042;28;20038;-77
2022/04/21 05:16:43;;;;;;;3.05;2.28;;;13.40;60.20;;;;;;5071904;28;20052;-78
2022/04/21 05:19:16;;;;;;;4.05;2.53;;;13.40;60.20;;;;;;5084378;28;20044;-79
2022/04/21 05:21:43;;;;;;;3.50;2.50;;;13.40;60.30;;;;;;5076312;28;20479;-79
2022/04/21 05:24:13;;;;;;;3.53;2.70;;;13.40;60.30;;;;;;5060604;28;20024;-79
2022/04/21 05:26:40;;;;;;;3.47;2.50;;;13.30;60.30;;;;;;5083710;28;20465;-79
2022/04/21 05:32:00;;;;;;;3.10;2.20;;;13.30;60.30;;;;;;5099120;28;20520;-78
2022/04/21 05:34:27;;;;;;;3.03;2.25;;;13.30;60.40;;;;;;5065858;28;20035;-79
2022/04/21 05:36:54;;;;;;;3.45;2.47;;;13.30;60.40;;;;;;5058707;28;20515;-79
2022/04/21 05:39:21;;;;;;;3.97;2.60;;;13.30;60.40;;;;;;5070938;28;20029;-78
2022/04/21 05:41:48;;;;;;;2.85;2.28;;;13.20;60.40;;;;;;5078470;28;20016;-78
2022/04/21 05:44:14;;;;;;;3.50;2.55;;;13.20;60.40;;;;;;5091471;28;20038;-79
2022/04/21 05:46:40;;;;;;;3.63;2.40;;;13.20;60.40;;;;;;5104603;28;20023;-79
2022/04/21 05:49:06;;;;;;;3.13;2.30;;;13.20;60.40;;;;;;5083884;28;20040;-79
2022/04/21 05:51:32;;;;;;;2.85;2.22;;;13.20;60.50;;;;;;5071373;28;20488;-78
2022/04/21 05:53:59;;;;;;;3.78;2.58;;;13.20;60.50;;;;;;5082489;28;20067;-77
2022/04/21 05:56:25;;;;;;;2.42;2.13;;;13.20;60.50;;;;;;5080133;28;20020;-78
2022/04/21 05:58:51;;;;;;;3.42;2.60;;;13.20;60.60;;;;;;5089137;28;20028;-78
2022/04/21 06:01:18;;;;;;;3.70;2.40;;;13.20;60.60;;;;;;5082970;28;20040;-77
2022/04/21 06:03:44;;;;;;;2.60;2.25;;;13.10;60.50;;;;;;5080200;28;20465;-80
2022/04/21 06:06:10;;;;;;;3.05;2.20;;;13.10;60.60;;;;;;5072705;28;20019;-78
2022/04/21 06:08:37;;;;;;;3.08;2.38;;;13.20;61.30;;;;;;5090145;28;20421;-77
2022/04/21 06:11:03;;;;;;;3.55;2.03;;;13.20;60.60;;;;;;5082921;28;20047;-77
2022/04/21 06:13:30;;;;;;;2.35;2.10;;;13.10;60.60;;;;;;5082849;28;20087;-78
2022/04/21 06:15:56;;;;;;;3.30;2.55;;;13.10;60.60;;;;;;5092592;28;20031;-79
2022/04/21 06:18:23;;;;;;;3.63;2.42;;;13.10;60.60;;;;;;5079566;28;20052;-78
2022/04/21 06:20:50;;;;;;;3.17;2.30;;;13.10;60.70;;;;;;5086117;28;20062;-77
2022/04/21 06:23:16;;;;;;;2.25;2.00;;;13.10;60.70;;;;;;5086077;28;20395;-77
2022/04/21 06:25:43;;;;;;;2.88;2.08;;;13.10;60.70;;;;;;5083734;28;20123;-78
2022/04/21 06:28:10;;;;;;;2.97;2.33;;;13.10;60.70;;;;;;5101027;28;20036;-78
2022/04/21 06:30:36;;;;;;;2.78;2.20;;;13.10;60.80;;;;;;5099360;28;20020;-77
2022/04/21 06:33:02;;;;;;;2.78;2.20;;;13.10;60.80;;;;;;5080788;28;20039;-78
2022/04/21 06:35:29;;;;;;;3.60;2.40;;;13.10;60.80;;;;;;5098429;28;20466;-79
2022/04/21 06:37:55;;;;;;;2.80;2.30;;;13.10;60.80;;;;;;5068661;28;20032;-78
2022/04/21 06:40:22;;;;;;;2.70;2.08;;;13.10;60.80;;;;;;5102405;28;20597;-78
2022/04/21 06:42:48;;;;;;;3.47;2.20;;;13.10;60.80;;;;;;5092650;28;20030;-78
2022/04/21 06:48:02;;;;;;;3.50;2.40;;;13.10;60.90;;;;;;5096708;28;20032;-77
2022/04/21 06:50:30;;;;;;;3.10;2.25;;;13.10;60.90;;;;;;5092823;28;20076;-79
2022/04/21 06:52:55;;;;;;;4.40;2.30;;;13.10;60.90;;;;;;5071591;28;20032;-77
2022/04/21 06:55:21;;;;;;;2.92;2.10;;;13.10;60.90;;;;;;5068502;28;20028;-78
2022/04/21 06:57:47;;;;;;;2.65;2.13;;;13.00;60.90;;;;;;5068942;28;20044;-78
2022/04/21 07:00:13;;;;;;;2.92;2.38;;;13.10;60.90;;;;;;5097045;28;20028;-79
2022/04/21 07:02:41;;;;;;;3.00;2.30;;;13.10;61.00;;;;;;5099535;28;20031;-78
2022/04/21 07:05:12;;;;;;;2.63;2.15;;;13.10;61.00;;;;;;5099127;28;20611;-79
2022/04/21 07:07:39;;;;;;;3.67;2.40;;;13.10;61.00;;;;;;5098950;28;20016;-77
2022/04/21 07:10:06;;;;;;;2.88;2.22;;;13.10;61.00;;;;;;5071419;28;20491;-78
2022/04/21 07:12:33;;;;;;;3.75;2.63;;;13.10;61.00;;;;;;5099105;28;20039;-77
2022/04/21 07:15:00;;;;;;;3.20;2.55;;;13.10;61.00;;;;;;5093939;28;20036;-78
2022/04/21 07:17:26;;;;;;;2.75;2.00;;;13.10;61.00;;;;;;5098277;28;20034;-78
2022/04/21 07:19:52;;;;;;;3.20;2.33;;;13.10;61.00;;;;;;5057017;28;20044;-79
2022/04/21 07:22:24;;;;;;;2.45;2.10;;;13.10;61.00;;;;;;5093786;28;20155;-79
2022/04/21 07:24:52;;;;;;;3.70;2.47;;;13.10;61.70;;;;;;5108235;28;20106;-80
2022/04/21 07:27:17;;;;;;;2.97;2.20;;;13.10;61.10;;;;;;5101363;28;20098;-78
2022/04/21 07:29:43;;;;;;;2.47;2.15;;;13.10;61.10;;;;;;5083065;28;20512;-78
2022/04/21 07:32:10;;;;;;;2.97;2.30;;;13.10;61.10;;;;;;5073720;28;20081;-79
2022/04/21 07:34:37;;;;;;;3.08;2.38;;;13.20;61.20;;;;;;5069294;28;20115;-78
2022/04/21 07:37:03;;;;;;;2.90;2.25;;;13.20;61.20;;;;;;5085987;28;20036;-79
2022/04/21 07:39:29;;;;;;;2.97;2.10;;;13.20;61.10;;;;;;5063773;28;20044;-79
2022/04/21 07:41:57;;;;;;;3.53;2.17;;;13.20;61.10;;;;;;5094420;28;20073;-79
2022/04/21 07:44:23;;;;;;;3.03;2.22;;;13.20;61.20;;;;;;5090751;28;20092;-78
2022/04/21 07:46:49;;;;;;;3.40;2.25;;;13.20;61.10;;;;;;5063070;28;20403;-79
2022/04/21 07:54:44;;;;;;;2.42;1.88;;;13.20;61.30;;;;;;5100872;28;19915;-80
2022/04/21 07:57:10;;;;;;;2.20;2.00;;;13.20;61.00;;;;;;5081199;28;20032;-76
2022/04/21 07:59:36;;;;;;;2.83;2.13;;;13.20;61.20;;;;;;5095206;28;20105;-79
2022/04/21 08:02:03;;;;;;;2.78;2.08;;;13.20;61.20;;;;;;5099115;28;20031;-80
2022/04/21 08:04:30;;;;;;;2.40;2.08;;;13.30;61.30;;;;;;5090833;28;20563;-77
2022/04/21 08:06:57;;;;;;;3.42;2.38;;;13.30;61.90;;;;;;5075814;28;20020;-78
2022/04/21 08:09:24;;;;;;;3.88;2.20;;;13.30;61.30;;;;;;5089846;28;20040;-78
2022/04/21 08:11:50;;;;;;;2.78;2.25;;;13.30;61.30;;;;;;5102700;28;20770;-77
2022/04/21 08:14:16;;;;;;;2.42;2.13;;;13.30;61.20;;;;;;5092938;28;20028;-78
2022/04/21 08:16:44;;;;;;;2.67;2.10;;;13.40;61.20;;;;;;5086257;28;20118;-78
2022/04/21 08:19:11;;;;;;;2.63;1.92;;;13.40;61.20;;;;;;5098126;28;20097;-78
2022/04/21 08:21:37;;;;;;;2.65;2.00;;;13.40;61.20;;;;;;5098843;28;20036;-78
2022/04/21 08:32:35;;;;;;;2.00;1.80;;;13.60;61.00;;;;;;5069930;28;20098;-78
2022/04/21 08:35:01;;;;;;;2.88;1.95;;;13.60;61.00;;;;;;5082284;28;20099;-78
2022/04/21 08:37:30;;;;;;;2.35;1.85;;;13.70;61.00;;;;;;5073946;28;20108;-79
2022/04/21 08:39:56;;;;;;;1.90;1.70;;;13.70;61.00;;;;;;5074317;28;20040;-78
2022/04/21 08:42:24;;;;;;;2.50;1.88;;;13.80;60.90;;;;;;5100245;28;20028;-77
2022/04/21 08:44:50;;;;;;;2.00;1.80;;;13.80;60.90;;;;;;5099615;28;20032;-79
2022/04/21 08:47:19;;;;;;;2.80;1.98;;;13.90;60.90;;;;;;5100684;28;20042;-77
2022/04/21 08:49:52;;;;;;;3.10;1.98;;;14.00;60.90;;;;;;5092466;28;20016;-80
2022/04/21 08:52:19;;;;;;;1.90;1.75;;;14.00;60.70;;;;;;5071611;28;20071;-80
2022/04/21 08:54:47;;;;;;;2.47;1.90;;;14.10;60.70;;;;;;5064527;28;20051;-79
2022/04/21 08:57:12;;;;;;;3.10;1.77;;;14.20;60.70;;;;;;5087522;28;20485;-78
2022/04/21 08:59:38;;;;;;;2.10;1.80;;;14.20;60.60;;;;;;5055504;28;20063;-78
2022/04/21 09:02:04;;;;;;;1.83;1.63;;;14.30;60.60;;;;;;5072642;28;20492;-79
2022/04/21 09:04:30;;;;;;;2.38;1.88;;;14.40;60.60;;;;;;5080420;28;20027;-78
2022/04/21 09:07:15;;;;;;;2.42;1.83;;;14.50;60.70;;;;;;5089377;28;20032;-78
2022/04/21 09:10:08;;;;;;;2.63;1.75;;;14.50;60.70;;;;;;5085403;28;20034;-78
2022/04/21 09:12:39;;;;;;;2.47;1.75;;;14.60;60.60;;;;;;5097115;28;20028;-77
2022/04/21 09:15:07;;;;;;;2.42;1.88;;;14.70;60.40;;;;;;5079334;28;20047;-78
2022/04/21 09:18:00;;;;;;;2.38;1.70;;;14.70;60.30;;;;;;5100707;28;20470;-79
2022/04/21 09:20:33;;;;;;;2.08;1.80;;;14.80;60.50;;;;;;5055871;28;20498;-79
2022/04/21 09:23:05;;;;;;;1.70;1.60;;;14.90;60.20;;;;;;5072375;28;20111;-79
2022/04/21 09:25:42;;;;;;;1.73;1.50;;;15.00;60.20;;;;;;5090025;28;20111;-79
2022/04/21 09:28:26;;;;;;;2.20;1.77;;;15.10;60.10;;;;;;5096156;28;20034;-79
2022/04/21 09:30:56;;;;;;;2.47;1.70;;;15.20;60.10;;;;;;5088773;28;20080;-79
2022/04/21 09:33:33;;;;;;;2.58;1.75;;;15.30;59.90;;;;;;5077401;28;20043;-81
2022/04/21 09:36:02;;;;;;;1.92;1.63;;;15.40;59.80;;;;;;5083670;28;20036;-79
2022/04/21 09:38:27;;;;;;;1.98;1.70;;;15.50;59.80;;;;;;5100482;28;20011;-80
2022/04/21 09:40:54;;;;;;;1.98;1.65;;;15.50;59.70;;;;;;5082351;28;20496;-79
2022/04/21 09:43:30;;;;;;;2.00;1.80;;;15.60;59.60;;;;;;5095446;28;20016;-79
2022/04/21 09:46:16;;;;;;;1.67;1.58;;;15.70;59.60;;;;;;5099567;28;20031;-80
2022/04/21 09:48:44;;;;;;;1.80;1.55;;;15.80;59.60;;;;;;5088661;28;20179;-77
2022/04/21 09:51:15;;;;;;;2.28;1.63;;;15.90;59.50;;;;;;5081175;28;20020;-78
2022/04/21 09:53:56;;;;;;;1.98;1.50;;;16.00;59.50;;;;;;5094955;28;20032;-78
2022/04/21 09:56:36;;;;;;;2.05;1.60;;;16.00;59.50;;;;;;5089319;28;20051;-79
2022/04/21 09:59:04;;;;;;;1.77;1.45;;;16.20;59.50;;;;;;5095273;28;20032;-82
2022/04/21 10:01:30;;;;;;;1.73;1.35;;;16.30;59.50;;;;;;5075677;28;20023;-78
2022/04/21 10:03:57;;;;;;;2.05;1.60;;;16.30;60.10;;;;;;5092836;28;20043;-76
2022/04/21 10:06:23;;;;;;;1.90;1.65;;;16.50;59.50;;;;;;5076060;28;20387;-77
2022/04/21 10:08:50;;;;;;;1.55;1.45;;;16.50;59.40;;;;;;5094910;28;20506;-77
2022/04/21 10:11:27;;;;;;;1.85;1.65;;;16.60;59.40;;;;;;5101511;28;20028;-77
2022/04/21 10:13:55;;;;;;;1.75;1.63;;;16.70;59.40;;;;;;5091143;28;20032;-77
2022/04/21 10:16:22;;;;;;;1.50;1.40;;;16.80;59.30;;;;;;5083655;28;20024;-75
2022/04/21 10:18:51;;;;;;;2.63;1.50;;;16.90;59.30;;;;;;5077986;28;20086;-78
2022/04/21 10:21:25;;;;;;;2.28;1.65;;;17.00;59.20;;;;;;5096524;28;20376;-76
2022/04/21 10:23:52;;;;;;;1.42;1.33;;;17.10;59.20;;;;;;5092201;28;20122;-77
2022/04/21 10:26:38;;;;;;;2.00;1.50;;;17.20;59.10;;;;;;5091079;28;20118;-78
2022/04/21 10:29:14;;;;;;;2.45;1.60;;;17.30;59.20;;;;;;5085869;28;20101;-77
2022/04/21 10:32:03;;;;;;;1.55;1.45;;;17.40;59.10;;;;;;5074646;28;20024;-75
2022/04/21 10:34:34;;;;;;;1.70;1.38;;;17.50;59.10;;;;;;5098833;28;20040;-75
2022/04/21 10:37:21;;;;;;;1.45;1.35;;;17.60;59.00;;;;;;5083130;28;20024;-77
2022/04/21 10:40:06;;;;;;;1.55;1.45;;;17.70;59.00;;;;;;5066875;28;20044;-78
2022/04/21 10:43:03;;;;;;;2.00;1.20;;;17.80;58.80;;;;;;5089253;28;20111;-79
2022/04/21 10:45:33;;;;;;;1.92;1.58;;;17.90;58.70;;;;;;5093406;28;20058;-77
2022/04/21 10:48:02;;;;;;;1.85;1.33;;;18.00;58.60;;;;;;5084453;28;20028;-76
2022/04/21 10:50:33;;;;;;;1.60;1.50;;;18.10;58.60;;;;;;5078435;28;20051;-77
2022/04/21 10:58:34;;;;;;;1.63;1.52;;;18.40;58.40;;;;;;5083567;28;20039;-77
2022/04/21 11:01:18;;;;;;;2.10;1.50;;;18.50;58.40;;;;;;5099380;28;20441;-77
2022/04/21 11:04:03;;;;;;;2.00;1.60;;;18.60;58.50;;;;;;5086148;28;20056;-76
2022/04/21 11:06:44;;;;;;;1.38;1.27;;;18.70;58.40;;;;;;5084337;28;20077;-80
2022/04/21 11:09:40;;;;;;;1.52;1.40;;;18.70;58.40;;;;;;5101167;28;20047;-76
2022/04/21 11:12:09;;;;;;;1.65;1.33;;;18.80;58.40;;;;;;5085911;28;20039;-77
2022/04/21 11:14:37;;;;;;;1.67;1.40;;;19.00;58.30;;;;;;5083130;28;20025;-76
2022/04/21 11:17:05;;;;;;;1.95;1.40;;;19.00;58.20;;;;;;5083519;28;20393;-76
2022/04/21 11:19:40;;;;;;;1.80;1.30;;;19.10;58.20;;;;;;5099089;28;20043;-77
2022/04/21 11:22:07;;;;;;;2.20;1.50;;;19.20;58.10;;;;;;5098596;28;20032;-76
2022/04/21 11:24:55;;;;;;;1.70;1.30;;;19.30;58.20;;;;;;5099249;28;20418;-77
2022/04/21 11:27:22;;;;;;;3.15;1.58;;;19.40;58.10;;;;;;5101645;28;20098;-76
2022/04/21 11:29:48;;;;;;;1.38;1.27;;;19.40;57.90;;;;;;5098704;28;20428;-76
2022/04/21 11:32:20;;;;;;;1.55;1.40;;;19.50;58.00;;;;;;5097572;28;20111;-76
2022/04/21 11:35:05;;;;;;;1.42;1.33;;;19.60;58.00;;;;;;5098865;28;20469;-76
2022/04/21 11:37:48;;;;;;;1.73;1.38;;;19.60;58.00;;;;;;5102468;28;20107;-76
2022/04/21 11:40:23;;;;;;;2.17;1.40;;;19.70;57.90;;;;;;5090607;28;20085;-76
2022/04/21 11:42:49;;;;;;;1.65;1.40;;;19.80;57.90;;;;;;5083084;28;20084;-76
2022/04/21 11:45:26;;;;;;;1.50;1.33;;;19.80;57.80;;;;;;5080653;28;20029;-75
2022/04/21 11:47:52;;;;;;;1.95;1.60;;;19.90;57.80;;;;;;5099112;28;20068;-76
2022/04/21 11:50:20;;;;;;;1.80;1.55;;;19.90;57.80;;;;;;5100971;28;20034;-75
2022/04/21 11:52:47;;;;;;;2.20;1.42;;;20.00;57.80;;;;;;5100771;28;20028;-75
2022/04/21 11:55:16;;;;;;;1.67;1.40;;;20.00;57.80;;;;;;5098755;28;20357;-75
2022/04/21 11:57:44;;;;;;;1.60;1.50;;;20.10;57.80;;;;;;5068885;28;20039;-75
2022/04/21 12:00:12;;;;;;;1.60;1.30;;;20.20;57.80;;;;;;5099456;28;20043;-75
2022/04/21 12:08:12;;;;;;;1.87;1.40;;;20.30;57.70;;;;;;5095430;28;20035;-76
2022/04/21 12:10:37;;;;;;;1.70;1.50;;;20.30;57.50;;;;;;5050505;28;20277;-76
2022/04/21 12:13:04;;;;;;;2.33;1.30;;;20.40;57.50;;;;;;5101822;28;20403;-75
2022/04/21 12:15:31;;;;;;;1.80;1.48;;;20.40;57.40;;;;;;5091978;28;20063;-76
2022/04/21 12:18:01;;;;;;;1.95;1.60;;;20.50;57.30;;;;;;5097916;27;20058;-75
2022/04/21 12:20:28;;;;;;;2.53;1.70;;;20.50;57.20;;;;;;5091092;28;20036;-75
2022/04/21 12:22:55;;;;;;;2.05;1.35;;;20.60;57.20;;;;;;5077231;28;20135;-75
2022/04/21 12:25:32;;;;;;;2.22;1.50;;;20.60;57.20;;;;;;5093519;28;20106;-75
2022/04/21 12:28:05;;;;;;;1.50;1.40;;;20.60;57.20;;;;;;5069950;28;20036;-75
2022/04/21 12:30:31;;;;;;;1.42;1.33;;;20.70;57.20;;;;;;5094969;28;20064;-75
2022/04/21 12:32:57;;;;;;;1.60;1.50;;;20.70;57.10;;;;;;5097000;28;20115;-75
2022/04/21 12:35:46;;;;;;;1.98;1.50;;;20.80;57.10;;;;;;5071718;28;20217;-75
2022/04/21 12:41:01;;;;;;;1.58;1.38;;;20.80;57.00;;;;;;5099503;28;20511;-76
2022/04/21 12:43:31;;;;;;;1.83;1.40;;;20.80;57.00;;;;;;5083786;28;20028;-76
2022/04/21 12:45:58;;;;;;;1.42;1.33;;;20.90;57.00;;;;;;5081704;28;20450;-76
2022/04/21 12:48:25;;;;;;;1.90;1.30;;;20.90;56.90;;;;;;5097031;28;20065;-76
2022/04/21 12:50:52;;;;;;;1.75;1.55;;;20.90;56.90;;;;;;5077447;28;20096;-77
2022/04/21 12:53:26;;;;;;;2.42;1.75;;;21.00;56.90;;;;;;5099732;28;20055;-76
2022/04/21 12:55:53;;;;;;;1.65;1.50;;;21.00;56.90;;;;;;5100082;28;20031;-76
2022/04/21 12:58:31;;;;;;;1.75;1.42;;;21.00;56.80;;;;;;5088741;28;20093;-76
2022/04/21 13:01:00;;;;;;;2.10;1.40;;;21.10;56.90;;;;;;5085231;28;20040;-76
2022/04/21 13:03:27;;;;;;;1.70;1.50;;;21.10;56.80;;;;;;5082318;28;20081;-76
2022/04/21 13:05:55;;;;;;;2.08;1.60;;;21.20;56.80;;;;;;5101203;28;20410;-76
2022/04/21 13:08:26;;;;;;;1.70;1.60;;;21.20;56.90;;;;;;5074639;28;20452;-76
2022/04/21 13:10:53;;;;;;;1.80;1.55;;;21.20;56.90;;;;;;5098677;28;20031;-76
2022/04/21 13:13:22;;;;;;;2.10;1.60;;;21.20;56.80;;;;;;5100669;28;20540;-76
2022/04/21 13:15:48;;;;;;;2.92;1.55;;;21.20;56.80;;;;;;5096321;28;20024;-76
2022/04/21 13:18:15;;;;;;;2.03;1.67;;;21.30;56.80;;;;;;5075973;28;20102;-75
2022/04/21 13:23:27;;;;;;;2.40;1.80;;;21.30;56.70;;;;;;5100989;28;20434;-77
2022/04/21 13:25:53;;;;;;;1.75;1.45;;;21.40;56.80;;;;;;5079615;28;20027;-76
2022/04/21 13:28:20;;;;;;;2.08;1.60;;;21.40;56.90;;;;;;5079548;28;20089;-75
2022/04/21 13:30:45;;;;;;;1.98;1.70;;;21.40;56.90;;;;;;5101939;28;20035;-75
2022/04/21 13:33:23;;;;;;;2.60;1.80;;;21.50;56.90;;;;;;5095436;28;20050;-76
2022/04/21 13:35:54;;;;;;;1.98;1.73;;;21.50;57.00;;;;;;5083384;28;20384;-76
2022/04/21 13:38:21;;;;;;;2.28;1.63;;;21.50;56.90;;;;;;5097055;28;20032;-76
2022/04/21 13:40:47;;;;;;;3.42;1.70;;;21.50;57.00;;;;;;5103872;28;20020;-75
2022/04/21 13:43:13;;;;;;;2.80;1.70;;;21.60;57.00;;;;;;5079562;28;20536;-75
2022/04/21 13:45:39;;;;;;;3.85;1.80;;;21.60;57.00;;;;;;5095332;28;20468;-75
2022/04/21 13:48:07;;;;;;;2.45;1.60;;;21.60;57.00;;;;;;5101933;28;20028;-77
2022/04/21 13:50:34;;;;;;;2.58;2.00;;;21.60;57.00;;;;;;5086609;28;20356;-75
2022/04/21 13:52:59;;;;;;;1.88;1.55;;;21.60;57.10;;;;;;5043652;28;20059;-76